Time;durP1;ratioP1;P1;durP2;ratioP2;P2;SDS_P1;SDS_P2;PMS_P1;PMS_P2;Temp;Humidity;BMP_temperature;BMP_pressure;BME280_temperature;BME280_humidity;BME280_pressure;Samples;Min_cycle;Max_cycle;Signal;HPM_P1;HPM_P2
2022/12/07 00:00:54;;;;;;;6.63;4.73;;;7.80;92.80;;;;;;5052357;28;20041;-68
2022/12/07 00:03:20;;;;;;;7.77;4.87;;;7.80;92.40;;;;;;5052550;28;20099;-68
2022/12/07 00:05:46;;;;;;;7.27;4.23;;;7.80;92.50;;;;;;5052224;28;20045;-68
2022/12/07 00:08:11;;;;;;;6.50;4.40;;;7.70;92.30;;;;;;5052386;28;20048;-67
2022/12/07 00:10:37;;;;;;;8.07;4.57;;;7.70;92.20;;;;;;5052510;28;20040;-68
2022/12/07 00:13:03;;;;;;;6.30;4.50;;;7.80;92.40;;;;;;5052520;28;20033;-67
2022/12/07 00:15:28;;;;;;;5.83;4.13;;;7.70;92.20;;;;;;5052436;28;20033;-68
2022/12/07 00:17:54;;;;;;;6.43;4.37;;;7.70;92.50;;;;;;5052093;28;20093;-68
2022/12/07 00:20:20;;;;;;;6.27;4.17;;;7.70;92.40;;;;;;5053461;28;20557;-68
2022/12/07 00:22:45;;;;;;;8.27;4.20;;;7.70;92.30;;;;;;5056077;28;20056;-66
2022/12/07 00:25:11;;;;;;;5.37;3.87;;;7.70;92.30;;;;;;5056264;28;20087;-68
2022/12/07 00:27:36;;;;;;;6.63;4.23;;;7.70;92.30;;;;;;5055860;28;20041;-67
2022/12/07 00:30:02;;;;;;;6.40;4.47;;;7.70;92.20;;;;;;5055810;28;20031;-68
2022/12/07 00:32:28;;;;;;;6.83;3.97;;;7.70;92.20;;;;;;5056225;28;20427;-68
2022/12/07 00:34:54;;;;;;;7.30;4.50;;;7.70;92.30;;;;;;5055789;28;20072;-68
2022/12/07 00:37:19;;;;;;;5.17;3.90;;;7.70;92.10;;;;;;5055946;28;20056;-67
2022/12/07 00:39:46;;;;;;;5.83;3.77;;;7.70;92.10;;;;;;5055821;28;20033;-68
2022/12/07 00:42:12;;;;;;;5.93;3.40;;;7.70;92.10;;;;;;5055715;28;20052;-68
2022/12/07 00:44:37;;;;;;;8.40;4.20;;;7.70;92.10;;;;;;5055587;28;20376;-67
2022/12/07 00:47:03;;;;;;;5.20;3.80;;;7.70;92.10;;;;;;5055481;28;20036;-68
2022/12/07 00:49:29;;;;;;;5.80;3.93;;;7.70;92.10;;;;;;5055551;28;20044;-67
2022/12/07 00:51:54;;;;;;;7.10;3.60;;;7.70;92.00;;;;;;5055407;28;20475;-68
2022/12/07 00:54:20;;;;;;;6.37;3.50;;;7.70;91.90;;;;;;5055552;28;20033;-68
2022/12/07 00:56:46;;;;;;;6.90;4.13;;;7.70;92.00;;;;;;5055601;28;20045;-67
2022/12/07 00:59:15;;;;;;;6.30;4.00;;;7.70;92.10;;;;;;5055704;28;20110;-67
2022/12/07 01:01:41;;;;;;;9.30;4.97;;;7.70;92.10;;;;;;5055325;28;20078;-68
2022/12/07 01:04:07;;;;;;;5.27;3.83;;;7.70;92.10;;;;;;5055461;28;20040;-68
2022/12/07 01:06:33;;;;;;;6.30;4.47;;;7.70;92.20;;;;;;5055083;28;20068;-68
2022/12/07 01:08:59;;;;;;;8.17;4.37;;;7.60;92.20;;;;;;5055287;28;20033;-68
2022/12/07 01:11:28;;;;;;;7.77;4.47;;;7.60;92.30;;;;;;5055418;28;20033;-68
2022/12/07 01:13:56;;;;;;;7.03;4.40;;;7.60;92.40;;;;;;5055292;28;20533;-68
2022/12/07 01:16:24;;;;;;;5.20;3.63;;;7.60;92.40;;;;;;5055273;28;20036;-68
2022/12/07 01:18:51;;;;;;;5.57;4.00;;;7.60;92.60;;;;;;5055061;28;20040;-67
2022/12/07 01:21:21;;;;;;;9.33;4.47;;;7.60;92.70;;;;;;5054937;28;20047;-68
2022/12/07 01:23:46;;;;;;;6.10;4.47;;;7.60;92.80;;;;;;5054852;28;20036;-68
2022/12/07 01:26:15;;;;;;;7.10;3.97;;;7.60;93.10;;;;;;5055024;28;20037;-67
2022/12/07 01:28:41;;;;;;;8.20;4.63;;;7.60;93.10;;;;;;5055208;28;20441;-67
2022/12/07 01:31:14;;;;;;;6.40;4.20;;;7.60;93.10;;;;;;5054536;28;20112;-68
2022/12/07 01:33:40;;;;;;;4.80;3.63;;;7.60;92.90;;;;;;5054504;28;20387;-68
2022/12/07 01:36:16;;;;;;;7.33;3.93;;;7.60;93.10;;;;;;5054669;28;20151;-68
2022/12/07 01:38:42;;;;;;;5.73;3.97;;;7.70;92.70;;;;;;5054860;28;20043;-67
2022/12/07 01:41:08;;;;;;;5.30;3.67;;;7.60;92.90;;;;;;5054542;28;20041;-67
2022/12/07 01:43:34;;;;;;;6.90;4.37;;;7.70;92.70;;;;;;5054488;28;20522;-67
2022/12/07 01:46:01;;;;;;;6.17;4.10;;;7.70;92.80;;;;;;5054369;28;20068;-68
2022/12/07 01:48:41;;;;;;;9.00;4.70;;;7.70;92.60;;;;;;5054524;28;20411;-68
2022/12/07 01:51:11;;;;;;;6.80;4.03;;;7.70;92.70;;;;;;5054437;28;20041;-68
2022/12/07 01:53:41;;;;;;;6.27;3.57;;;7.70;92.50;;;;;;5054672;28;20041;-68
2022/12/07 01:56:10;;;;;;;6.33;3.90;;;7.70;92.50;;;;;;5054327;28;20037;-68
2022/12/07 01:58:37;;;;;;;5.53;4.00;;;7.70;92.50;;;;;;5052401;28;20025;-68
2022/12/07 02:01:03;;;;;;;5.93;4.40;;;7.70;92.40;;;;;;5051563;28;20041;-68
2022/12/07 02:03:43;;;;;;;5.37;3.83;;;7.60;92.70;;;;;;5051425;28;20041;-68
2022/12/07 02:06:13;;;;;;;7.27;3.50;;;7.70;92.70;;;;;;5053861;28;20043;-68
2022/12/07 02:08:39;;;;;;;11.07;3.83;;;7.60;92.60;;;;;;5036191;28;20076;-68
2022/12/07 02:11:07;;;;;;;5.97;3.90;;;7.60;92.60;;;;;;5053783;28;20033;-67
2022/12/07 02:13:35;;;;;;;8.47;4.27;;;7.60;92.60;;;;;;5053489;28;20040;-68
2022/12/07 02:16:19;;;;;;;4.60;3.60;;;7.60;92.60;;;;;;5053716;28;20036;-68
2022/12/07 02:19:03;;;;;;;4.10;3.30;;;7.60;92.70;;;;;;5053936;28;20045;-68
2022/12/07 02:21:32;;;;;;;5.13;3.97;;;7.50;92.60;;;;;;5053472;28;20043;-67
2022/12/07 02:24:16;;;;;;;5.07;3.23;;;7.60;92.80;;;;;;5053970;28;20114;-68
2022/12/07 02:26:59;;;;;;;6.67;4.13;;;7.50;92.70;;;;;;5053887;28;20040;-68
2022/12/07 02:29:49;;;;;;;4.40;3.43;;;7.50;92.70;;;;;;5053184;28;20068;-67
2022/12/07 02:32:56;;;;;;;6.13;3.97;;;7.50;92.80;;;;;;5035788;28;20357;-68
2022/12/07 02:35:33;;;;;;;6.00;3.73;;;7.50;92.80;;;;;;5052678;28;20037;-67
2022/12/07 02:38:40;;;;;;;4.60;3.63;;;7.50;93.00;;;;;;5053369;28;20043;-67
2022/12/07 02:41:12;;;;;;;7.07;3.63;;;7.50;92.80;;;;;;5031401;28;20145;-66
2022/12/07 02:43:45;;;;;;;5.05;3.33;;;7.50;92.70;;;;;;5030518;28;20041;-67
2022/12/07 02:46:17;;;;;;;4.87;3.53;;;7.50;92.50;;;;;;5043372;28;20045;-68
2022/12/07 02:48:43;;;;;;;5.23;4.00;;;7.40;92.60;;;;;;5053166;28;20487;-68
2022/12/07 02:51:09;;;;;;;4.30;3.30;;;7.40;92.40;;;;;;5053519;28;20390;-67
2022/12/07 02:53:42;;;;;;;4.87;3.40;;;7.40;92.40;;;;;;5053288;28;20029;-68
2022/12/07 02:56:22;;;;;;;5.00;3.70;;;7.40;92.60;;;;;;5053250;28;20037;-67
2022/12/07 02:59:21;;;;;;;5.10;3.60;;;7.40;92.70;;;;;;5035238;28;20037;-68
2022/12/07 03:02:15;;;;;;;5.90;3.13;;;7.40;92.30;;;;;;5035358;28;20045;-68
2022/12/07 03:04:49;;;;;;;4.07;3.27;;;7.40;92.40;;;;;;5052872;28;20025;-67
2022/12/07 03:07:37;;;;;;;4.67;3.60;;;7.40;92.30;;;;;;5053173;28;20037;-68
2022/12/07 03:10:20;;;;;;;8.97;3.13;;;7.40;92.20;;;;;;5053041;28;20063;-67
2022/12/07 03:12:52;;;;;;;;;;;7.50;92.00;;;;;;5035506;28;20029;-67
2022/12/07 03:15:47;;;;;;;4.73;3.43;;;7.50;91.80;;;;;;5053034;28;19912;-67
2022/12/07 03:18:17;;;;;;;8.37;3.50;;;7.50;91.60;;;;;;5053265;28;20092;-67
2022/12/07 03:20:45;;;;;;;3.27;2.73;;;7.50;91.60;;;;;;5053115;28;20037;-68
2022/12/07 03:23:14;;;;;;;6.00;3.30;;;7.50;91.60;;;;;;5052822;28;20048;-68
2022/12/07 03:25:45;;;;;;;6.27;3.00;;;7.60;91.40;;;;;;5052505;28;20029;-68
2022/12/07 03:28:15;;;;;;;4.43;3.23;;;7.50;91.40;;;;;;5052522;28;20037;-68
2022/12/07 03:30:55;;;;;;;5.47;3.30;;;7.50;91.70;;;;;;5053157;28;20113;-67
2022/12/07 03:33:29;;;;;;;6.77;3.10;;;7.50;91.70;;;;;;5052678;28;20056;-67
2022/12/07 03:36:01;;;;;;;5.40;3.40;;;7.50;91.70;;;;;;5052907;28;20041;-68
2022/12/07 03:38:35;;;;;;;3.75;3.00;;;7.50;91.70;;;;;;5052724;28;20554;-68
2022/12/07 03:41:14;;;;;;;4.57;3.10;;;7.50;91.60;;;;;;5052734;28;20029;-68
2022/12/07 03:43:41;;;;;;;3.87;3.23;;;7.40;91.60;;;;;;5052729;28;20034;-67
2022/12/07 03:46:18;;;;;;;5.20;3.20;;;7.40;91.70;;;;;;5052598;28;20045;-68
2022/12/07 03:48:59;;;;;;;4.70;3.10;;;7.40;91.80;;;;;;5052454;28;20029;-68
2022/12/07 03:51:36;;;;;;;4.47;2.77;;;7.40;91.80;;;;;;5052705;28;20037;-68
2022/12/07 03:54:08;;;;;;;5.47;3.30;;;7.40;91.80;;;;;;5053659;28;20037;-67
2022/12/07 03:56:34;;;;;;;4.47;3.10;;;7.40;91.90;;;;;;5056767;28;20028;-67
2022/12/07 03:59:00;;;;;;;4.57;3.00;;;7.40;91.80;;;;;;5056740;28;20029;-68
2022/12/07 04:01:26;;;;;;;4.93;3.03;;;7.30;92.00;;;;;;5056505;28;20127;-67
2022/12/07 04:03:51;;;;;;;7.77;4.40;;;7.30;92.00;;;;;;5056405;28;20033;-68
2022/12/07 04:06:17;;;;;;;5.97;3.30;;;7.30;91.80;;;;;;5056400;28;20040;-69
2022/12/07 04:08:43;;;;;;;7.00;3.63;;;7.30;92.10;;;;;;5056630;28;20037;-67
2022/12/07 04:11:08;;;;;;;4.40;3.40;;;7.20;91.80;;;;;;5056386;28;20387;-68
2022/12/07 04:14:18;;;;;;;5.67;3.90;;;7.20;91.90;;;;;;5056551;28;20041;-67
2022/12/07 04:16:20;;;;;;;3.90;3.10;;;7.20;91.90;;;;;;5056185;28;20018;-68
2022/12/07 04:18:46;;;;;;;5.60;3.27;;;7.20;92.00;;;;;;5056331;28;20091;-67
2022/12/07 04:21:12;;;;;;;20.17;13.37;;;7.20;91.90;;;;;;5056151;28;20045;-68
2022/12/07 04:23:37;;;;;;;22.50;17.47;;;7.20;91.80;;;;;;5056408;28;20372;-67
2022/12/07 04:26:03;;;;;;;68.40;59.80;;;7.10;91.80;;;;;;5056335;28;20044;-68
2022/12/07 04:28:28;;;;;;;83.00;74.10;;;7.10;91.90;;;;;;5055718;28;20094;-67
2022/12/07 04:30:54;;;;;;;25.83;23.17;;;7.10;92.00;;;;;;5055930;28;20387;-67
2022/12/07 04:33:20;;;;;;;10.47;5.27;;;7.10;92.30;;;;;;5056042;28;20037;-66
2022/12/07 04:35:45;;;;;;;5.80;4.17;;;7.10;91.90;;;;;;5056079;28;20541;-67
2022/12/07 04:38:11;;;;;;;12.37;7.80;;;7.10;91.90;;;;;;5055663;28;20033;-67
2022/12/07 04:40:37;;;;;;;5.80;3.73;;;7.10;92.20;;;;;;5055772;28;20033;-67
2022/12/07 04:43:02;;;;;;;4.90;3.90;;;7.10;92.10;;;;;;5055818;28;20399;-68
2022/12/07 04:45:28;;;;;;;6.37;4.10;;;7.00;92.00;;;;;;5055888;28;20052;-67
2022/12/07 04:47:54;;;;;;;4.83;3.30;;;7.00;92.30;;;;;;5055803;28;20119;-67
2022/12/07 04:50:19;;;;;;;6.20;3.47;;;7.00;92.40;;;;;;5055796;28;20040;-68
2022/12/07 04:52:45;;;;;;;4.33;3.17;;;7.00;92.10;;;;;;5055676;28;20037;-68
2022/12/07 04:55:11;;;;;;;4.27;3.40;;;7.00;92.00;;;;;;5055566;28;20064;-67
2022/12/07 04:57:36;;;;;;;6.97;4.87;;;7.00;91.90;;;;;;5055430;28;20083;-66
2022/12/07 05:00:02;;;;;;;8.63;5.80;;;7.00;92.10;;;;;;5055525;28;20594;-67
2022/12/07 05:02:28;;;;;;;4.73;3.33;;;6.90;92.10;;;;;;5055348;28;20106;-67
2022/12/07 05:04:54;;;;;;;3.83;3.10;;;6.90;91.90;;;;;;5055450;28;20486;-68
2022/12/07 05:07:19;;;;;;;6.03;2.97;;;6.90;92.10;;;;;;5054771;28;20482;-68
2022/12/07 05:09:45;;;;;;;4.20;3.30;;;6.90;92.10;;;;;;5055420;28;20044;-67
2022/12/07 05:12:11;;;;;;;4.33;3.07;;;6.90;92.00;;;;;;5055220;28;20372;-67
2022/12/07 05:14:36;;;;;;;4.37;3.30;;;7.00;91.90;;;;;;5055138;28;20086;-68
2022/12/07 05:17:02;;;;;;;5.20;2.57;;;7.00;91.90;;;;;;5055138;28;20048;-68
2022/12/07 05:19:28;;;;;;;6.73;3.03;;;7.00;91.60;;;;;;5055239;28;20455;-67
2022/12/07 05:21:53;;;;;;;3.77;2.57;;;7.00;91.70;;;;;;5054943;28;20417;-67
2022/12/07 05:24:19;;;;;;;4.13;3.13;;;7.00;91.60;;;;;;5055349;28;20036;-68
2022/12/07 05:26:45;;;;;;;4.80;3.00;;;7.00;91.70;;;;;;5055081;28;20107;-67
2022/12/07 05:29:13;;;;;;;3.70;2.93;;;7.00;91.90;;;;;;5054876;28;20514;-67
2022/12/07 05:31:39;;;;;;;3.97;2.53;;;7.00;91.80;;;;;;5054849;28;20033;-68
2022/12/07 05:34:05;;;;;;;4.17;3.00;;;7.00;91.80;;;;;;5054698;28;20079;-68
2022/12/07 05:36:31;;;;;;;6.10;3.17;;;6.90;91.70;;;;;;5054982;28;20434;-67
2022/12/07 05:38:57;;;;;;;5.03;3.03;;;6.90;91.80;;;;;;5054701;28;20051;-68
2022/12/07 05:44:07;;;;;;;5.43;3.27;;;6.90;91.80;;;;;;5054737;28;20171;-68
2022/12/07 05:46:33;;;;;;;3.47;2.77;;;6.90;91.60;;;;;;5054366;28;20439;-68
2022/12/07 05:48:59;;;;;;;4.40;3.07;;;6.90;91.60;;;;;;5054662;28;20059;-68
2022/12/07 05:51:25;;;;;;;5.07;2.90;;;6.90;91.50;;;;;;5054737;28;20406;-68
2022/12/07 05:53:51;;;;;;;4.67;2.87;;;6.90;91.70;;;;;;5036537;28;20044;-67
2022/12/07 05:56:16;;;;;;;5.80;2.63;;;6.90;91.70;;;;;;5054366;28;20133;-68
2022/12/07 06:01:26;;;;;;;4.63;2.93;;;6.90;91.60;;;;;;5054309;28;20123;-67
2022/12/07 06:03:52;;;;;;;6.03;3.07;;;6.90;91.70;;;;;;5054127;28;20112;-68
2022/12/07 06:06:18;;;;;;;3.27;2.67;;;6.90;91.30;;;;;;5054049;28;20134;-67
2022/12/07 06:08:44;;;;;;;3.97;2.33;;;6.90;91.50;;;;;;5054093;28;20413;-67
2022/12/07 06:13:53;;;;;;;4.63;2.40;;;6.80;91.50;;;;;;5053852;28;20044;-67
2022/12/07 06:16:19;;;;;;;3.93;2.30;;;6.80;91.10;;;;;;5054055;28;20029;-68
2022/12/07 06:18:45;;;;;;;5.23;2.30;;;6.80;91.40;;;;;;5053045;28;20041;-68
2022/12/07 06:21:10;;;;;;;4.40;2.77;;;6.80;91.30;;;;;;5053758;28;20029;-67
2022/12/07 06:23:36;;;;;;;3.70;2.67;;;6.80;91.40;;;;;;5053522;28;20036;-67
2022/12/07 06:26:02;;;;;;;4.90;2.53;;;6.80;91.40;;;;;;5053836;28;20039;-67
2022/12/07 06:28:27;;;;;;;5.80;2.50;;;6.80;91.40;;;;;;5053784;28;20479;-68
2022/12/07 06:31:00;;;;;;;3.67;2.37;;;6.80;91.70;;;;;;5053676;28;20048;-67
2022/12/07 06:33:27;;;;;;;4.73;2.70;;;6.80;91.60;;;;;;5053572;28;20442;-67
2022/12/07 06:35:53;;;;;;;4.10;2.40;;;6.80;91.70;;;;;;5053282;28;20037;-67
2022/12/07 06:38:18;;;;;;;7.17;3.27;;;6.80;91.70;;;;;;5035536;28;20075;-68
2022/12/07 06:40:44;;;;;;;5.03;3.30;;;6.80;91.70;;;;;;5053434;28;20029;-67
2022/12/07 06:43:10;;;;;;;6.37;3.30;;;6.70;91.80;;;;;;5053452;28;20491;-68
2022/12/07 06:45:35;;;;;;;5.10;3.20;;;6.70;92.00;;;;;;5053360;28;20067;-67
2022/12/07 06:48:01;;;;;;;7.37;3.50;;;6.70;91.80;;;;;;5053336;28;20033;-67
2022/12/07 06:50:27;;;;;;;7.17;3.77;;;6.60;92.00;;;;;;5052874;28;20029;-67
2022/12/07 06:52:53;;;;;;;4.90;3.57;;;6.60;91.70;;;;;;5053310;28;20037;-68
2022/12/07 06:55:18;;;;;;;4.73;3.07;;;6.60;91.80;;;;;;5053394;28;20033;-68
2022/12/07 06:57:44;;;;;;;4.50;3.47;;;6.60;92.20;;;;;;5053291;28;20041;-68
2022/12/07 07:00:10;;;;;;;5.77;2.90;;;6.60;92.10;;;;;;5053059;28;20025;-67
2022/12/07 07:02:36;;;;;;;5.23;3.10;;;6.60;92.10;;;;;;5053025;28;20048;-66
2022/12/07 07:05:02;;;;;;;4.40;3.00;;;6.60;92.20;;;;;;5053576;28;20076;-67
2022/12/07 07:07:28;;;;;;;6.10;3.30;;;6.60;92.40;;;;;;5052889;28;20028;-67
2022/12/07 07:09:54;;;;;;;5.47;3.10;;;6.60;92.20;;;;;;5052844;28;20037;-67
2022/12/07 07:12:20;;;;;;;5.93;2.83;;;6.60;92.20;;;;;;5053167;28;20037;-68
2022/12/07 07:14:45;;;;;;;4.57;2.97;;;6.60;92.20;;;;;;5053074;28;20083;-67
2022/12/07 07:17:11;;;;;;;3.93;2.70;;;6.60;92.10;;;;;;5053168;28;20033;-67
2022/12/07 07:19:37;;;;;;;3.67;2.57;;;6.70;92.20;;;;;;5052777;28;20537;-67
2022/12/07 07:22:04;;;;;;;5.33;2.90;;;6.70;92.10;;;;;;5052373;28;20045;-67
2022/12/07 07:24:30;;;;;;;5.10;2.90;;;6.70;92.20;;;;;;5052331;28;20043;-67
2022/12/07 07:26:55;;;;;;;12.87;8.60;;;6.70;92.30;;;;;;5052451;28;20048;-66
2022/12/07 07:29:21;;;;;;;16.57;12.03;;;6.80;92.30;;;;;;5051737;28;20455;-67
2022/12/07 07:31:47;;;;;;;11.93;8.80;;;6.80;92.30;;;;;;5052058;28;20029;-66
2022/12/07 07:34:12;;;;;;;8.20;5.53;;;6.80;92.20;;;;;;5052326;28;20459;-67
2022/12/07 07:36:38;;;;;;;8.23;6.00;;;6.80;92.30;;;;;;5052455;28;20032;-66
2022/12/07 07:39:04;;;;;;;6.27;4.40;;;6.90;92.30;;;;;;5052763;28;20052;-67
2022/12/07 07:41:30;;;;;;;7.83;4.43;;;6.90;92.40;;;;;;5051877;28;20380;-67
2022/12/07 07:43:56;;;;;;;6.13;3.93;;;6.90;92.40;;;;;;5049585;28;20094;-68
2022/12/07 07:46:22;;;;;;;16.33;4.50;;;7.00;92.40;;;;;;5049822;28;20045;-67
2022/12/07 07:48:47;;;;;;;6.67;4.07;;;7.00;92.30;;;;;;5052305;28;20107;-67
2022/12/07 07:51:13;;;;;;;10.17;4.33;;;7.00;92.40;;;;;;5052323;28;20586;-67
2022/12/07 07:53:38;;;;;;;6.70;4.67;;;7.00;92.40;;;;;;5052561;28;20505;-67
2022/12/07 07:56:04;;;;;;;6.90;4.90;;;7.10;92.30;;;;;;5052363;28;20040;-67
2022/12/07 07:58:30;;;;;;;7.43;4.07;;;7.10;92.30;;;;;;5052734;28;20041;-67
2022/12/07 08:00:56;;;;;;;4.73;3.47;;;7.20;92.20;;;;;;5052238;28;20063;-67
2022/12/07 08:03:21;;;;;;;5.83;3.97;;;7.20;92.10;;;;;;5052460;28;20501;-67
2022/12/07 08:05:47;;;;;;;5.33;3.57;;;7.30;92.00;;;;;;5052162;28;20103;-67
2022/12/07 08:08:12;;;;;;;4.77;3.10;;;7.40;91.90;;;;;;5051798;28;20033;-68
2022/12/07 08:10:38;;;;;;;8.13;3.83;;;7.50;91.80;;;;;;5051740;28;20043;-67
2022/12/07 08:13:10;;;;;;;5.40;3.80;;;7.60;91.70;;;;;;5051581;28;20487;-67
2022/12/07 08:15:38;;;;;;;6.07;3.73;;;7.60;91.60;;;;;;5052025;28;20079;-67
2022/12/07 08:18:04;;;;;;;4.97;3.67;;;7.70;91.50;;;;;;5052179;28;20551;-67
2022/12/07 08:20:31;;;;;;;4.20;3.10;;;7.70;91.50;;;;;;5052055;28;20498;-67
2022/12/07 08:22:57;;;;;;;4.60;3.30;;;7.70;91.50;;;;;;5051840;28;20037;-67
2022/12/07 08:25:23;;;;;;;5.03;3.37;;;7.70;91.60;;;;;;5033943;28;20119;-67
2022/12/07 08:27:50;;;;;;;4.60;3.20;;;7.80;91.60;;;;;;5052120;28;20029;-66
2022/12/07 08:30:16;;;;;;;4.87;3.17;;;7.80;91.60;;;;;;5051714;28;20033;-67
2022/12/07 08:32:43;;;;;;;3.77;2.80;;;7.80;91.50;;;;;;5051432;28;20118;-67
2022/12/07 08:35:09;;;;;;;3.80;2.57;;;7.90;91.50;;;;;;5051891;28;20040;-67
2022/12/07 08:37:35;;;;;;;4.30;2.50;;;7.90;91.40;;;;;;5052083;28;20041;-68
2022/12/07 08:40:01;;;;;;;6.40;2.93;;;8.00;91.50;;;;;;5052147;28;20037;-69
2022/12/07 08:42:29;;;;;;;5.73;2.87;;;8.00;91.70;;;;;;5055048;28;20048;-68
2022/12/07 08:44:57;;;;;;;3.87;2.40;;;8.00;91.60;;;;;;5055557;28;20045;-69
2022/12/07 08:47:24;;;;;;;3.97;2.90;;;8.10;91.60;;;;;;5055706;28;20033;-67
2022/12/07 08:49:51;;;;;;;4.37;2.90;;;8.10;91.40;;;;;;5055698;28;20094;-68
2022/12/07 08:52:18;;;;;;;5.77;3.17;;;8.20;91.10;;;;;;5055758;28;20029;-70
2022/12/07 08:54:44;;;;;;;4.13;2.80;;;8.20;91.00;;;;;;5055547;28;20032;-70
2022/12/07 08:57:11;;;;;;;5.73;2.30;;;8.30;90.90;;;;;;5055440;28;20064;-68
2022/12/07 08:59:37;;;;;;;6.37;2.80;;;8.40;90.70;;;;;;5055520;28;20044;-70
2022/12/07 09:02:05;;;;;;;4.77;2.70;;;8.40;90.60;;;;;;5055118;28;20534;-69
2022/12/07 09:04:31;;;;;;;4.23;2.40;;;8.50;90.60;;;;;;5054777;28;20504;-69
2022/12/07 09:06:57;;;;;;;2.40;1.80;;;8.50;90.50;;;;;;5055083;28;20041;-69
2022/12/07 09:09:23;;;;;;;2.47;1.80;;;8.50;90.30;;;;;;5054099;28;20104;-70
2022/12/07 09:11:48;;;;;;;3.30;2.00;;;8.60;90.10;;;;;;5054738;28;20120;-69
2022/12/07 09:14:14;;;;;;;2.07;1.50;;;8.60;89.80;;;;;;5055003;28;20028;-69
2022/12/07 09:16:40;;;;;;;2.33;1.57;;;8.70;89.20;;;;;;5055011;28;20570;-69
2022/12/07 09:19:07;;;;;;;1.97;1.50;;;8.80;88.90;;;;;;5055005;28;20086;-69
2022/12/07 09:21:33;;;;;;;2.40;1.50;;;8.80;88.70;;;;;;5054884;28;20074;-70
2022/12/07 09:23:58;;;;;;;3.00;1.87;;;8.80;88.20;;;;;;5054920;28;20065;-70
2022/12/07 09:26:24;;;;;;;4.63;1.83;;;8.90;87.80;;;;;;5053335;28;20043;-70
2022/12/07 09:28:49;;;;;;;4.03;2.10;;;9.00;87.90;;;;;;5054364;28;20033;-71
2022/12/07 09:31:15;;;;;;;9.73;2.93;;;9.00;88.20;;;;;;5054455;28;20029;-70
2022/12/07 09:33:41;;;;;;;3.57;1.77;;;9.00;88.40;;;;;;5054535;28;20112;-69
2022/12/07 09:36:07;;;;;;;2.87;2.00;;;9.10;88.30;;;;;;5054615;28;20519;-70
2022/12/07 09:38:33;;;;;;;3.40;2.10;;;9.10;88.40;;;;;;5054589;28;20029;-69
2022/12/07 09:41:05;;;;;;;3.23;1.93;;;9.10;88.20;;;;;;5054180;28;20052;-69
2022/12/07 09:43:31;;;;;;;4.90;2.10;;;9.20;88.00;;;;;;5054252;28;20124;-69
2022/12/07 09:45:57;;;;;;;4.57;2.13;;;9.20;87.80;;;;;;5053870;28;20128;-69
2022/12/07 09:48:38;;;;;;;6.80;1.80;;;9.30;88.00;;;;;;5054489;28;20476;-69
2022/12/07 09:51:23;;;;;;;6.87;2.23;;;9.30;87.90;;;;;;5054030;28;20095;-69
2022/12/07 09:53:50;;;;;;;3.00;2.07;;;9.30;87.90;;;;;;5054023;28;20545;-69
2022/12/07 09:56:18;;;;;;;2.40;1.87;;;9.40;88.30;;;;;;5053484;28;20036;-70
2022/12/07 09:58:45;;;;;;;6.30;1.90;;;9.40;88.30;;;;;;5054289;28;20427;-69
2022/12/07 10:01:20;;;;;;;2.47;1.97;;;9.40;88.00;;;;;;5054015;28;20095;-70
2022/12/07 10:03:50;;;;;;;2.40;1.90;;;9.40;87.70;;;;;;5054405;28;20037;-70
2022/12/07 10:06:16;;;;;;;4.73;2.13;;;9.50;87.80;;;;;;5054374;28;20066;-70
2022/12/07 10:08:43;;;;;;;2.73;2.00;;;9.50;87.80;;;;;;5054244;28;20037;-70
2022/12/07 10:11:10;;;;;;;2.70;1.90;;;9.50;87.30;;;;;;5053985;28;20095;-70
2022/12/07 10:13:53;;;;;;;2.67;2.20;;;9.50;87.30;;;;;;5054179;28;20074;-70
2022/12/07 10:16:28;;;;;;;3.23;2.00;;;9.60;87.70;;;;;;5054049;28;20040;-71
2022/12/07 10:18:54;;;;;;;3.13;2.00;;;9.60;87.70;;;;;;5054023;28;20039;-69
2022/12/07 10:21:25;;;;;;;2.73;1.80;;;9.70;87.70;;;;;;5053987;28;20519;-69
2022/12/07 10:24:04;;;;;;;2.92;2.22;;;9.70;87.60;;;;;;5053890;28;20033;-69
2022/12/07 10:26:40;;;;;;;5.30;2.00;;;9.80;88.00;;;;;;5053792;28;20108;-69
2022/12/07 10:29:39;;;;;;;5.10;1.90;;;9.90;87.00;;;;;;5053880;28;20032;-68
2022/12/07 10:32:26;;;;;;;3.38;1.95;;;9.90;86.90;;;;;;5053588;28;20521;-69
2022/12/07 10:35:11;;;;;;;4.28;2.00;;;10.00;86.90;;;;;;5053375;28;20511;-69
2022/12/07 10:37:41;;;;;;;2.93;1.70;;;10.00;85.90;;;;;;5053515;28;20047;-68
2022/12/07 10:40:33;;;;;;;5.05;2.03;;;10.10;85.50;;;;;;5053851;28;20025;-70
2022/12/07 10:43:02;;;;;;;2.58;2.03;;;10.20;85.10;;;;;;5053394;28;20056;-69
2022/12/07 10:45:28;;;;;;;3.78;1.92;;;10.20;85.30;;;;;;5053388;28;20517;-69
2022/12/07 10:48:24;;;;;;;3.23;2.10;;;10.30;84.30;;;;;;5053464;28;20108;-69
2022/12/07 10:51:01;;;;;;;2.93;1.70;;;10.30;83.30;;;;;;5053523;28;20033;-70
2022/12/07 10:53:49;;;;;;;3.40;2.20;;;10.30;83.00;;;;;;5053090;28;20482;-69
2022/12/07 10:56:23;;;;;;;2.80;1.73;;;10.30;82.60;;;;;;5053286;28;20368;-69
2022/12/07 10:59:20;;;;;;;4.43;1.90;;;10.30;82.40;;;;;;5053394;28;20040;-68
2022/12/07 11:02:15;;;;;;;2.78;1.80;;;10.30;82.00;;;;;;5051588;28;20053;-68
2022/12/07 11:05:09;;;;;;;3.00;1.90;;;10.40;81.60;;;;;;5052401;28;20057;-69
2022/12/07 11:07:51;;;;;;;3.90;2.45;;;10.40;82.70;;;;;;5053036;28;20033;-69
2022/12/07 11:10:29;;;;;;;2.77;1.80;;;10.40;82.50;;;;;;5052911;28;20037;-68
2022/12/07 11:13:04;;;;;;;4.22;2.00;;;10.50;82.70;;;;;;5052890;28;20259;-69
2022/12/07 11:15:50;;;;;;;3.00;1.60;;;10.60;82.20;;;;;;5052871;28;20107;-69
2022/12/07 11:18:27;;;;;;;2.83;1.80;;;10.60;82.10;;;;;;5052995;28;20072;-68
2022/12/07 11:21:10;;;;;;;4.00;1.90;;;10.70;82.20;;;;;;5052954;28;20041;-68
2022/12/07 11:24:09;;;;;;;2.45;1.83;;;10.70;81.90;;;;;;5052711;28;20086;-69
2022/12/07 11:26:54;;;;;;;2.70;2.10;;;10.80;81.60;;;;;;5052552;28;20037;-70
2022/12/07 11:29:37;;;;;;;2.20;1.73;;;10.90;80.10;;;;;;5048364;28;20043;-69
2022/12/07 11:32:29;;;;;;;5.18;1.80;;;10.90;80.20;;;;;;5049837;28;20033;-69
2022/12/07 11:35:13;;;;;;;2.65;1.75;;;10.90;80.00;;;;;;5041387;28;20115;-70
2022/12/07 11:37:41;;;;;;;3.10;1.50;;;11.00;79.30;;;;;;5052400;28;20037;-69
2022/12/07 11:40:16;;;;;;;2.20;1.55;;;11.00;78.50;;;;;;5052749;28;20045;-70
2022/12/07 11:42:51;;;;;;;2.67;1.80;;;11.00;78.30;;;;;;5052358;28;20506;-69
2022/12/07 11:45:29;;;;;;;3.47;2.17;;;11.10;78.20;;;;;;5052267;28;20056;-72
2022/12/07 11:48:03;;;;;;;3.67;1.58;;;11.10;78.60;;;;;;5052668;28;20115;-69
2022/12/07 11:50:45;;;;;;;2.30;1.73;;;11.10;77.80;;;;;;5052154;28;20033;-69
2022/12/07 11:53:21;;;;;;;2.22;1.50;;;11.10;77.30;;;;;;5051018;28;20444;-70
2022/12/07 11:55:56;;;;;;;2.53;1.58;;;11.10;76.40;;;;;;5049998;28;20083;-69
2022/12/07 11:58:40;;;;;;;2.97;1.88;;;11.10;76.50;;;;;;5051054;28;20037;-69
2022/12/07 12:01:17;;;;;;;4.53;1.98;;;11.10;76.20;;;;;;5052592;28;20026;-69
2022/12/07 12:03:49;;;;;;;2.30;1.67;;;11.20;75.90;;;;;;5052449;28;20077;-69
2022/12/07 12:06:15;;;;;;;3.83;2.05;;;11.20;76.00;;;;;;5052443;28;20035;-69
2022/12/07 12:09:01;;;;;;;4.80;1.80;;;11.20;75.00;;;;;;5052136;28;20033;-69
2022/12/07 12:12:01;;;;;;;2.40;1.60;;;11.20;74.90;;;;;;5048187;28;20037;-69
2022/12/07 12:14:54;;;;;;;4.43;1.80;;;11.20;74.10;;;;;;5052161;28;20037;-68
2022/12/07 12:17:39;;;;;;;2.78;1.48;;;11.20;73.90;;;;;;5055132;28;20040;-69
2022/12/07 12:20:31;;;;;;;2.67;1.40;;;11.10;73.10;;;;;;5041978;28;20091;-69
2022/12/07 12:23:36;;;;;;;2.17;1.50;;;11.10;72.70;;;;;;5056098;28;20041;-68
2022/12/07 12:26:05;;;;;;;5.97;1.33;;;11.00;73.50;;;;;;5051735;28;20037;-69
2022/12/07 12:28:35;;;;;;;2.22;1.50;;;11.00;73.20;;;;;;5054518;28;20037;-70
2022/12/07 12:31:21;;;;;;;3.08;1.50;;;11.00;73.00;;;;;;5036080;28;20124;-69
2022/12/07 12:33:52;;;;;;;4.05;1.58;;;11.00;73.50;;;;;;5035748;28;20033;-69
2022/12/07 12:36:38;;;;;;;2.70;1.42;;;11.00;72.10;;;;;;5036214;28;20091;-69
2022/12/07 12:39:06;;;;;;;2.63;1.33;;;11.00;72.40;;;;;;5035271;28;20515;-69
2022/12/07 12:41:39;;;;;;;3.53;1.42;;;11.00;72.00;;;;;;5035887;28;20038;-70
2022/12/07 12:44:19;;;;;;;2.42;1.40;;;11.00;72.80;;;;;;5048183;28;20147;-69
2022/12/07 12:47:04;;;;;;;1.95;1.30;;;11.00;71.20;;;;;;5055433;28;20043;-69
2022/12/07 12:49:44;;;;;;;2.00;1.20;;;11.00;70.70;;;;;;5035706;28;20462;-68
2022/12/07 12:52:38;;;;;;;5.90;1.15;;;11.00;71.10;;;;;;5035754;28;20038;-69
2022/12/07 12:55:10;;;;;;;3.17;1.60;;;11.00;70.60;;;;;;5043838;28;20124;-69
2022/12/07 12:57:36;;;;;;;2.30;1.55;;;10.90;70.00;;;;;;5055679;28;20048;-69
2022/12/07 13:00:20;;;;;;;3.55;1.25;;;10.90;70.60;;;;;;5055279;28;20499;-68
2022/12/07 13:02:52;;;;;;;2.03;1.27;;;10.90;69.40;;;;;;5055361;28;20132;-70
2022/12/07 13:05:20;;;;;;;1.95;1.30;;;10.90;69.00;;;;;;5055231;28;20114;-69
2022/12/07 13:07:51;;;;;;;3.65;1.42;;;10.90;69.10;;;;;;5054636;28;20029;-69
2022/12/07 13:10:23;;;;;;;2.10;1.40;;;10.80;69.60;;;;;;5054756;28;20035;-69
2022/12/07 13:13:15;;;;;;;2.30;1.50;;;10.80;70.00;;;;;;5054754;28;20110;-69
2022/12/07 13:16:03;;;;;;;1.50;1.20;;;10.80;69.30;;;;;;5046237;28;20533;-69
2022/12/07 13:18:32;;;;;;;3.05;1.00;;;10.80;70.70;;;;;;5054647;28;20033;-69
2022/12/07 13:21:06;;;;;;;3.40;1.23;;;10.70;71.30;;;;;;5055031;28;20094;-69
2022/12/07 13:23:38;;;;;;;1.92;1.17;;;10.80;71.90;;;;;;5055119;28;20052;-70